sensor_id;sensor_type;location;lat;lon;timestamp;P1;durP1;ratioP1;P2;durP2;ratioP2
23670;SDS011;12012;51.998;7.614;2023-07-22T00:01:49;10.05;;;7.45;;
23670;SDS011;12012;51.998;7.614;2023-07-22T00:04:14;12.15;;;8.07;;
23670;SDS011;12012;51.998;7.614;2023-07-22T00:06:40;10.98;;;8.05;;
23670;SDS011;12012;51.998;7.614;2023-07-22T00:09:06;13.15;;;9.48;;
23670;SDS011;12012;51.998;7.614;2023-07-22T00:11:31;13.40;;;9.73;;
23670;SDS011;12012;51.998;7.614;2023-07-22T00:13:57;14.13;;;9.68;;
23670;SDS011;12012;51.998;7.614;2023-07-22T00:16:24;14.48;;;8.50;;
23670;SDS011;12012;51.998;7.614;2023-07-22T00:18:49;12.95;;;9.10;;
23670;SDS011;12012;51.998;7.614;2023-07-22T00:21:15;13.57;;;9.98;;
23670;SDS011;12012;51.998;7.614;2023-07-22T00:23:40;11.05;;;8.00;;
23670;SDS011;12012;51.998;7.614;2023-07-22T00:26:06;11.85;;;8.45;;
23670;SDS011;12012;51.998;7.614;2023-07-22T00:28:32;16.05;;;9.80;;
23670;SDS011;12012;51.998;7.614;2023-07-22T00:30:58;14.45;;;8.45;;
23670;SDS011;12012;51.998;7.614;2023-07-22T00:33:23;20.23;;;10.80;;
23670;SDS011;12012;51.998;7.614;2023-07-22T00:35:49;15.18;;;9.75;;
23670;SDS011;12012;51.998;7.614;2023-07-22T00:38:15;17.50;;;10.63;;
23670;SDS011;12012;51.998;7.614;2023-07-22T00:40:41;17.15;;;10.43;;
23670;SDS011;12012;51.998;7.614;2023-07-22T00:43:06;15.82;;;10.30;;
23670;SDS011;12012;51.998;7.614;2023-07-22T00:45:32;15.80;;;10.20;;
23670;SDS011;12012;51.998;7.614;2023-07-22T00:47:58;15.80;;;10.75;;
23670;SDS011;12012;51.998;7.614;2023-07-22T00:50:24;14.52;;;9.70;;
23670;SDS011;12012;51.998;7.614;2023-07-22T00:52:50;21.35;;;10.45;;
23670;SDS011;12012;51.998;7.614;2023-07-22T00:55:16;17.40;;;10.48;;
23670;SDS011;12012;51.998;7.614;2023-07-22T00:57:42;16.55;;;10.55;;
23670;SDS011;12012;51.998;7.614;2023-07-22T01:00:08;12.35;;;7.95;;
23670;SDS011;12012;51.998;7.614;2023-07-22T01:02:36;12.38;;;8.45;;
23670;SDS011;12012;51.998;7.614;2023-07-22T01:05:05;13.82;;;8.73;;
23670;SDS011;12012;51.998;7.614;2023-07-22T01:07:32;15.88;;;9.48;;
23670;SDS011;12012;51.998;7.614;2023-07-22T01:09:58;15.80;;;9.57;;
23670;SDS011;12012;51.998;7.614;2023-07-22T01:12:23;13.50;;;8.13;;
23670;SDS011;12012;51.998;7.614;2023-07-22T01:14:50;11.13;;;7.75;;
23670;SDS011;12012;51.998;7.614;2023-07-22T01:17:15;16.45;;;10.90;;
23670;SDS011;12012;51.998;7.614;2023-07-22T01:19:41;18.58;;;10.02;;
23670;SDS011;12012;51.998;7.614;2023-07-22T01:22:08;15.43;;;9.60;;
23670;SDS011;12012;51.998;7.614;2023-07-22T01:24:34;16.13;;;10.43;;
23670;SDS011;12012;51.998;7.614;2023-07-22T01:27:00;21.20;;;11.10;;
23670;SDS011;12012;51.998;7.614;2023-07-22T01:29:28;14.15;;;9.38;;
23670;SDS011;12012;51.998;7.614;2023-07-22T01:31:54;14.10;;;9.13;;
23670;SDS011;12012;51.998;7.614;2023-07-22T01:34:21;12.18;;;8.32;;
23670;SDS011;12012;51.998;7.614;2023-07-22T01:36:47;11.98;;;8.30;;
23670;SDS011;12012;51.998;7.614;2023-07-22T01:39:14;16.30;;;10.52;;
23670;SDS011;12012;51.998;7.614;2023-07-22T01:41:40;16.40;;;10.43;;
23670;SDS011;12012;51.998;7.614;2023-07-22T01:44:06;11.35;;;7.93;;
23670;SDS011;12012;51.998;7.614;2023-07-22T01:46:33;15.05;;;9.50;;
23670;SDS011;12012;51.998;7.614;2023-07-22T01:48:58;16.83;;;11.48;;
23670;SDS011;12012;51.998;7.614;2023-07-22T01:51:24;13.05;;;8.80;;
23670;SDS011;12012;51.998;7.614;2023-07-22T01:53:50;14.52;;;10.45;;
23670;SDS011;12012;51.998;7.614;2023-07-22T01:56:16;13.45;;;9.20;;
23670;SDS011;12012;51.998;7.614;2023-07-22T01:58:41;15.32;;;10.63;;
23670;SDS011;12012;51.998;7.614;2023-07-22T02:01:07;13.60;;;9.65;;
23670;SDS011;12012;51.998;7.614;2023-07-22T02:03:33;20.73;;;10.02;;
23670;SDS011;12012;51.998;7.614;2023-07-22T02:06:02;21.52;;;11.80;;
23670;SDS011;12012;51.998;7.614;2023-07-22T02:08:29;19.20;;;10.00;;
23670;SDS011;12012;51.998;7.614;2023-07-22T02:10:55;17.85;;;10.00;;
23670;SDS011;12012;51.998;7.614;2023-07-22T02:13:24;13.27;;;9.05;;
23670;SDS011;12012;51.998;7.614;2023-07-22T02:15:50;14.77;;;9.15;;
23670;SDS011;12012;51.998;7.614;2023-07-22T02:18:16;16.05;;;10.27;;
23670;SDS011;12012;51.998;7.614;2023-07-22T02:20:42;15.35;;;10.23;;
23670;SDS011;12012;51.998;7.614;2023-07-22T02:23:08;15.68;;;10.45;;
23670;SDS011;12012;51.998;7.614;2023-07-22T02:25:34;14.32;;;9.25;;
23670;SDS011;12012;51.998;7.614;2023-07-22T02:28:01;16.10;;;8.98;;
23670;SDS011;12012;51.998;7.614;2023-07-22T02:30:26;15.02;;;9.77;;
23670;SDS011;12012;51.998;7.614;2023-07-22T02:32:52;14.50;;;8.95;;
23670;SDS011;12012;51.998;7.614;2023-07-22T02:35:17;18.40;;;9.98;;
23670;SDS011;12012;51.998;7.614;2023-07-22T02:37:43;13.65;;;8.13;;
23670;SDS011;12012;51.998;7.614;2023-07-22T02:40:08;18.55;;;10.65;;
23670;SDS011;12012;51.998;7.614;2023-07-22T02:42:38;13.25;;;9.07;;
23670;SDS011;12012;51.998;7.614;2023-07-22T02:45:07;12.52;;;9.40;;
23670;SDS011;12012;51.998;7.614;2023-07-22T02:47:33;14.18;;;9.95;;
23670;SDS011;12012;51.998;7.614;2023-07-22T02:50:02;14.98;;;9.48;;
23670;SDS011;12012;51.998;7.614;2023-07-22T02:52:29;15.50;;;8.52;;
23670;SDS011;12012;51.998;7.614;2023-07-22T02:57:30;15.55;;;9.52;;
23670;SDS011;12012;51.998;7.614;2023-07-22T02:59:56;11.82;;;8.63;;
23670;SDS011;12012;51.998;7.614;2023-07-22T03:02:21;14.88;;;9.10;;
23670;SDS011;12012;51.998;7.614;2023-07-22T03:04:47;15.90;;;9.48;;
23670;SDS011;12012;51.998;7.614;2023-07-22T03:07:13;16.02;;;9.98;;
23670;SDS011;12012;51.998;7.614;2023-07-22T03:09:38;18.98;;;11.70;;
23670;SDS011;12012;51.998;7.614;2023-07-22T03:12:04;16.55;;;10.02;;
23670;SDS011;12012;51.998;7.614;2023-07-22T03:14:29;13.68;;;9.45;;
23670;SDS011;12012;51.998;7.614;2023-07-22T03:17:01;13.68;;;8.70;;
23670;SDS011;12012;51.998;7.614;2023-07-22T03:19:28;14.98;;;9.77;;
23670;SDS011;12012;51.998;7.614;2023-07-22T03:21:54;15.63;;;9.48;;
23670;SDS011;12012;51.998;7.614;2023-07-22T03:24:20;13.52;;;9.00;;
23670;SDS011;12012;51.998;7.614;2023-07-22T03:26:45;13.27;;;9.65;;
23670;SDS011;12012;51.998;7.614;2023-07-22T03:29:11;13.80;;;9.15;;
23670;SDS011;12012;51.998;7.614;2023-07-22T03:31:37;16.67;;;10.48;;
23670;SDS011;12012;51.998;7.614;2023-07-22T03:34:02;13.35;;;9.60;;
23670;SDS011;12012;51.998;7.614;2023-07-22T03:36:28;15.00;;;9.73;;
23670;SDS011;12012;51.998;7.614;2023-07-22T03:38:54;13.63;;;9.70;;
23670;SDS011;12012;51.998;7.614;2023-07-22T03:41:19;13.52;;;9.52;;
23670;SDS011;12012;51.998;7.614;2023-07-22T03:43:45;13.82;;;8.95;;
23670;SDS011;12012;51.998;7.614;2023-07-22T03:46:10;17.25;;;10.93;;
23670;SDS011;12012;51.998;7.614;2023-07-22T03:48:36;16.27;;;10.93;;
23670;SDS011;12012;51.998;7.614;2023-07-22T03:51:01;15.05;;;10.90;;
23670;SDS011;12012;51.998;7.614;2023-07-22T03:53:27;14.90;;;8.90;;
23670;SDS011;12012;51.998;7.614;2023-07-22T03:55:53;23.77;;;11.82;;
23670;SDS011;12012;51.998;7.614;2023-07-22T03:58:19;14.25;;;9.57;;
23670;SDS011;12012;51.998;7.614;2023-07-22T04:00:47;17.88;;;11.52;;
23670;SDS011;12012;51.998;7.614;2023-07-22T04:03:14;14.18;;;9.23;;
23670;SDS011;12012;51.998;7.614;2023-07-22T04:05:39;14.48;;;9.70;;
23670;SDS011;12012;51.998;7.614;2023-07-22T04:08:05;16.75;;;10.93;;
23670;SDS011;12012;51.998;7.614;2023-07-22T04:10:30;18.40;;;11.32;;
23670;SDS011;12012;51.998;7.614;2023-07-22T04:12:56;18.05;;;9.68;;
23670;SDS011;12012;51.998;7.614;2023-07-22T04:15:22;21.60;;;12.20;;
23670;SDS011;12012;51.998;7.614;2023-07-22T04:17:47;11.00;;;8.68;;
23670;SDS011;12012;51.998;7.614;2023-07-22T04:20:13;12.10;;;8.95;;
23670;SDS011;12012;51.998;7.614;2023-07-22T04:22:39;14.30;;;9.13;;
23670;SDS011;12012;51.998;7.614;2023-07-22T04:25:04;18.70;;;11.23;;
23670;SDS011;12012;51.998;7.614;2023-07-22T04:27:30;13.60;;;9.88;;
23670;SDS011;12012;51.998;7.614;2023-07-22T04:29:56;15.52;;;9.73;;
23670;SDS011;12012;51.998;7.614;2023-07-22T04:32:22;21.27;;;11.65;;
23670;SDS011;12012;51.998;7.614;2023-07-22T04:34:48;16.27;;;9.73;;
23670;SDS011;12012;51.998;7.614;2023-07-22T04:37:13;16.17;;;11.02;;
23670;SDS011;12012;51.998;7.614;2023-07-22T04:39:39;16.05;;;10.57;;
23670;SDS011;12012;51.998;7.614;2023-07-22T04:42:04;18.40;;;11.55;;
23670;SDS011;12012;51.998;7.614;2023-07-22T04:44:30;17.27;;;10.70;;
23670;SDS011;12012;51.998;7.614;2023-07-22T04:46:56;16.63;;;10.30;;
23670;SDS011;12012;51.998;7.614;2023-07-22T04:49:22;13.88;;;10.00;;
23670;SDS011;12012;51.998;7.614;2023-07-22T04:51:47;13.77;;;9.73;;
23670;SDS011;12012;51.998;7.614;2023-07-22T04:54:13;19.98;;;12.43;;
23670;SDS011;12012;51.998;7.614;2023-07-22T04:56:40;19.02;;;12.50;;
23670;SDS011;12012;51.998;7.614;2023-07-22T04:59:06;25.83;;;14.70;;
23670;SDS011;12012;51.998;7.614;2023-07-22T05:01:32;18.85;;;11.50;;
23670;SDS011;12012;51.998;7.614;2023-07-22T05:03:58;23.63;;;12.90;;
23670;SDS011;12012;51.998;7.614;2023-07-22T05:06:23;22.48;;;14.45;;
23670;SDS011;12012;51.998;7.614;2023-07-22T05:08:50;22.73;;;15.68;;
23670;SDS011;12012;51.998;7.614;2023-07-22T05:11:16;20.63;;;14.60;;
23670;SDS011;12012;51.998;7.614;2023-07-22T05:13:43;20.70;;;11.35;;
23670;SDS011;12012;51.998;7.614;2023-07-22T05:16:08;19.02;;;12.27;;
23670;SDS011;12012;51.998;7.614;2023-07-22T05:18:34;20.20;;;13.10;;
23670;SDS011;12012;51.998;7.614;2023-07-22T05:20:59;18.52;;;12.55;;
23670;SDS011;12012;51.998;7.614;2023-07-22T05:23:25;22.27;;;14.40;;
23670;SDS011;12012;51.998;7.614;2023-07-22T05:25:51;21.02;;;14.60;;
23670;SDS011;12012;51.998;7.614;2023-07-22T05:28:17;21.45;;;13.60;;
23670;SDS011;12012;51.998;7.614;2023-07-22T05:30:43;19.52;;;12.95;;
23670;SDS011;12012;51.998;7.614;2023-07-22T05:33:13;22.00;;;13.68;;
23670;SDS011;12012;51.998;7.614;2023-07-22T05:35:38;16.13;;;11.65;;
23670;SDS011;12012;51.998;7.614;2023-07-22T05:38:04;19.20;;;13.23;;
23670;SDS011;12012;51.998;7.614;2023-07-22T05:40:31;16.77;;;11.70;;
23670;SDS011;12012;51.998;7.614;2023-07-22T05:42:56;21.92;;;13.40;;
23670;SDS011;12012;51.998;7.614;2023-07-22T05:45:22;17.85;;;12.50;;
23670;SDS011;12012;51.998;7.614;2023-07-22T05:47:48;18.13;;;12.65;;
23670;SDS011;12012;51.998;7.614;2023-07-22T05:50:13;18.23;;;13.38;;
23670;SDS011;12012;51.998;7.614;2023-07-22T05:52:39;17.67;;;12.98;;
23670;SDS011;12012;51.998;7.614;2023-07-22T05:55:05;16.70;;;12.40;;
23670;SDS011;12012;51.998;7.614;2023-07-22T05:57:31;17.83;;;12.93;;
23670;SDS011;12012;51.998;7.614;2023-07-22T05:59:56;22.27;;;14.18;;
23670;SDS011;12012;51.998;7.614;2023-07-22T06:02:22;19.52;;;12.57;;
23670;SDS011;12012;51.998;7.614;2023-07-22T06:04:47;22.17;;;14.60;;
23670;SDS011;12012;51.998;7.614;2023-07-22T06:07:13;19.27;;;13.40;;
23670;SDS011;12012;51.998;7.614;2023-07-22T06:09:39;19.33;;;14.13;;
23670;SDS011;12012;51.998;7.614;2023-07-22T06:12:05;21.58;;;14.32;;
23670;SDS011;12012;51.998;7.614;2023-07-22T06:14:31;16.85;;;12.30;;
23670;SDS011;12012;51.998;7.614;2023-07-22T06:16:56;22.58;;;14.40;;
23670;SDS011;12012;51.998;7.614;2023-07-22T06:19:22;19.15;;;14.40;;
23670;SDS011;12012;51.998;7.614;2023-07-22T06:21:50;19.67;;;12.45;;
23670;SDS011;12012;51.998;7.614;2023-07-22T06:24:16;23.23;;;14.23;;
23670;SDS011;12012;51.998;7.614;2023-07-22T06:26:42;22.42;;;14.95;;
23670;SDS011;12012;51.998;7.614;2023-07-22T06:29:08;18.40;;;12.90;;
23670;SDS011;12012;51.998;7.614;2023-07-22T06:31:33;19.48;;;13.55;;
23670;SDS011;12012;51.998;7.614;2023-07-22T06:33:59;17.92;;;12.55;;
23670;SDS011;12012;51.998;7.614;2023-07-22T06:36:25;19.15;;;13.70;;
23670;SDS011;12012;51.998;7.614;2023-07-22T06:38:51;16.85;;;12.20;;
23670;SDS011;12012;51.998;7.614;2023-07-22T06:41:17;19.20;;;13.68;;
23670;SDS011;12012;51.998;7.614;2023-07-22T06:43:44;21.27;;;14.40;;
23670;SDS011;12012;51.998;7.614;2023-07-22T06:46:09;18.38;;;11.70;;
23670;SDS011;12012;51.998;7.614;2023-07-22T06:48:35;23.85;;;15.48;;
23670;SDS011;12012;51.998;7.614;2023-07-22T06:51:01;24.52;;;15.35;;
23670;SDS011;12012;51.998;7.614;2023-07-22T06:53:26;23.02;;;15.48;;
23670;SDS011;12012;51.998;7.614;2023-07-22T06:55:52;21.85;;;13.43;;
23670;SDS011;12012;51.998;7.614;2023-07-22T06:58:19;22.55;;;14.43;;
23670;SDS011;12012;51.998;7.614;2023-07-22T07:00:45;20.17;;;12.57;;
23670;SDS011;12012;51.998;7.614;2023-07-22T07:03:11;20.60;;;13.70;;
23670;SDS011;12012;51.998;7.614;2023-07-22T07:05:36;21.58;;;13.55;;
23670;SDS011;12012;51.998;7.614;2023-07-22T07:08:05;19.10;;;11.80;;
23670;SDS011;12012;51.998;7.614;2023-07-22T07:10:34;19.77;;;12.60;;
23670;SDS011;12012;51.998;7.614;2023-07-22T07:13:02;19.33;;;14.00;;
23670;SDS011;12012;51.998;7.614;2023-07-22T07:15:27;20.02;;;12.52;;
23670;SDS011;12012;51.998;7.614;2023-07-22T07:17:54;20.77;;;13.60;;
23670;SDS011;12012;51.998;7.614;2023-07-22T07:20:19;19.25;;;13.57;;
23670;SDS011;12012;51.998;7.614;2023-07-22T07:22:45;16.55;;;11.57;;
23670;SDS011;12012;51.998;7.614;2023-07-22T07:25:11;17.65;;;12.00;;
23670;SDS011;12012;51.998;7.614;2023-07-22T07:27:36;19.05;;;12.90;;
23670;SDS011;12012;51.998;7.614;2023-07-22T07:30:02;19.23;;;13.95;;
23670;SDS011;12012;51.998;7.614;2023-07-22T07:32:28;22.10;;;13.75;;
23670;SDS011;12012;51.998;7.614;2023-07-22T07:34:56;20.95;;;13.70;;
23670;SDS011;12012;51.998;7.614;2023-07-22T07:37:25;23.75;;;15.48;;
23670;SDS011;12012;51.998;7.614;2023-07-22T07:39:51;22.17;;;15.02;;
23670;SDS011;12012;51.998;7.614;2023-07-22T07:42:23;16.25;;;11.13;;
23670;SDS011;12012;51.998;7.614;2023-07-22T07:44:49;23.05;;;13.75;;
23670;SDS011;12012;51.998;7.614;2023-07-22T07:47:14;19.48;;;13.98;;
23670;SDS011;12012;51.998;7.614;2023-07-22T07:49:40;20.73;;;13.77;;
23670;SDS011;12012;51.998;7.614;2023-07-22T07:52:06;21.98;;;14.25;;
23670;SDS011;12012;51.998;7.614;2023-07-22T07:54:31;22.20;;;14.77;;
23670;SDS011;12012;51.998;7.614;2023-07-22T07:56:57;17.25;;;13.27;;
23670;SDS011;12012;51.998;7.614;2023-07-22T07:59:22;21.13;;;13.88;;
23670;SDS011;12012;51.998;7.614;2023-07-22T08:01:48;21.65;;;14.38;;
23670;SDS011;12012;51.998;7.614;2023-07-22T08:04:14;15.60;;;11.25;;
23670;SDS011;12012;51.998;7.614;2023-07-22T08:06:39;22.95;;;12.63;;
23670;SDS011;12012;51.998;7.614;2023-07-22T08:09:05;15.38;;;11.25;;
23670;SDS011;12012;51.998;7.614;2023-07-22T08:11:31;20.00;;;13.27;;
23670;SDS011;12012;51.998;7.614;2023-07-22T08:13:57;18.52;;;12.63;;
23670;SDS011;12012;51.998;7.614;2023-07-22T08:16:23;17.80;;;12.10;;
23670;SDS011;12012;51.998;7.614;2023-07-22T08:18:49;20.52;;;13.75;;
23670;SDS011;12012;51.998;7.614;2023-07-22T08:21:15;23.13;;;14.30;;
23670;SDS011;12012;51.998;7.614;2023-07-22T08:23:40;25.60;;;15.52;;
23670;SDS011;12012;51.998;7.614;2023-07-22T08:26:10;14.65;;;10.77;;
23670;SDS011;12012;51.998;7.614;2023-07-22T08:28:36;20.70;;;13.00;;
23670;SDS011;12012;51.998;7.614;2023-07-22T08:31:02;17.85;;;11.60;;
23670;SDS011;12012;51.998;7.614;2023-07-22T08:33:27;18.45;;;13.30;;
23670;SDS011;12012;51.998;7.614;2023-07-22T08:35:53;14.95;;;11.70;;
23670;SDS011;12012;51.998;7.614;2023-07-22T08:38:19;15.60;;;11.82;;
23670;SDS011;12012;51.998;7.614;2023-07-22T08:40:47;16.60;;;9.88;;
23670;SDS011;12012;51.998;7.614;2023-07-22T08:43:15;15.30;;;10.93;;
23670;SDS011;12012;51.998;7.614;2023-07-22T08:45:44;17.67;;;11.43;;
23670;SDS011;12012;51.998;7.614;2023-07-22T08:48:10;15.32;;;9.45;;
23670;SDS011;12012;51.998;7.614;2023-07-22T08:50:49;12.25;;;8.80;;
23670;SDS011;12012;51.998;7.614;2023-07-22T08:53:24;15.80;;;10.88;;
23670;SDS011;12012;51.998;7.614;2023-07-22T08:55:50;12.32;;;8.77;;
23670;SDS011;12012;51.998;7.614;2023-07-22T08:58:16;13.25;;;9.15;;
23670;SDS011;12012;51.998;7.614;2023-07-22T09:00:43;26.55;;;11.32;;
23670;SDS011;12012;51.998;7.614;2023-07-22T09:03:09;16.27;;;8.43;;
23670;SDS011;12012;51.998;7.614;2023-07-22T09:05:36;13.65;;;10.13;;
23670;SDS011;12012;51.998;7.614;2023-07-22T09:08:02;14.23;;;10.65;;
23670;SDS011;12012;51.998;7.614;2023-07-22T09:10:31;12.75;;;10.32;;
23670;SDS011;12012;51.998;7.614;2023-07-22T09:12:58;16.05;;;10.18;;
23670;SDS011;12012;51.998;7.614;2023-07-22T09:15:24;12.82;;;10.38;;
23670;SDS011;12012;51.998;7.614;2023-07-22T09:17:51;11.65;;;9.52;;
23670;SDS011;12012;51.998;7.614;2023-07-22T09:20:16;16.30;;;9.55;;
23670;SDS011;12012;51.998;7.614;2023-07-22T09:22:43;12.90;;;10.13;;
23670;SDS011;12012;51.998;7.614;2023-07-22T09:25:19;12.30;;;9.77;;
23670;SDS011;12012;51.998;7.614;2023-07-22T09:27:47;11.80;;;9.75;;
23670;SDS011;12012;51.998;7.614;2023-07-22T09:30:24;14.57;;;10.13;;
23670;SDS011;12012;51.998;7.614;2023-07-22T09:32:51;14.38;;;9.18;;
23670;SDS011;12012;51.998;7.614;2023-07-22T09:35:18;14.43;;;9.90;;
23670;SDS011;12012;51.998;7.614;2023-07-22T09:37:44;10.55;;;8.88;;
23670;SDS011;12012;51.998;7.614;2023-07-22T09:42:44;11.65;;;8.50;;
23670;SDS011;12012;51.998;7.614;2023-07-22T09:45:14;11.10;;;7.95;;
23670;SDS011;12012;51.998;7.614;2023-07-22T09:47:43;11.00;;;8.02;;
23670;SDS011;12012;51.998;7.614;2023-07-22T09:50:10;8.80;;;7.20;;
23670;SDS011;12012;51.998;7.614;2023-07-22T09:52:46;8.77;;;7.43;;
23670;SDS011;12012;51.998;7.614;2023-07-22T09:55:14;7.75;;;6.93;;
23670;SDS011;12012;51.998;7.614;2023-07-22T09:57:45;8.30;;;6.67;;
23670;SDS011;12012;51.998;7.614;2023-07-22T10:00:15;9.25;;;6.70;;
23670;SDS011;12012;51.998;7.614;2023-07-22T10:02:42;8.40;;;6.78;;
23670;SDS011;12012;51.998;7.614;2023-07-22T10:05:13;7.93;;;5.90;;
23670;SDS011;12012;51.998;7.614;2023-07-22T10:07:45;6.38;;;5.72;;
23670;SDS011;12012;51.998;7.614;2023-07-22T10:10:13;9.68;;;6.28;;
23670;SDS011;12012;51.998;7.614;2023-07-22T10:12:41;8.27;;;5.97;;
23670;SDS011;12012;51.998;7.614;2023-07-22T10:15:10;7.18;;;5.85;;
23670;SDS011;12012;51.998;7.614;2023-07-22T10:17:39;8.32;;;6.28;;
23670;SDS011;12012;51.998;7.614;2023-07-22T10:20:05;7.70;;;6.50;;
23670;SDS011;12012;51.998;7.614;2023-07-22T10:22:36;9.02;;;6.65;;
23670;SDS011;12012;51.998;7.614;2023-07-22T10:25:05;10.32;;;6.38;;
23670;SDS011;12012;51.998;7.614;2023-07-22T10:27:32;8.52;;;6.75;;
23670;SDS011;12012;51.998;7.614;2023-07-22T10:30:00;8.20;;;6.50;;
23670;SDS011;12012;51.998;7.614;2023-07-22T10:32:31;8.25;;;7.10;;
23670;SDS011;12012;51.998;7.614;2023-07-22T10:34:57;7.97;;;6.80;;
23670;SDS011;12012;51.998;7.614;2023-07-22T10:37:29;7.95;;;6.75;;
23670;SDS011;12012;51.998;7.614;2023-07-22T10:39:59;10.05;;;6.78;;
23670;SDS011;12012;51.998;7.614;2023-07-22T10:42:26;10.48;;;7.32;;
23670;SDS011;12012;51.998;7.614;2023-07-22T10:44:52;10.38;;;6.93;;
23670;SDS011;12012;51.998;7.614;2023-07-22T10:47:34;9.90;;;6.97;;
23670;SDS011;12012;51.998;7.614;2023-07-22T10:50:07;8.10;;;6.70;;
23670;SDS011;12012;51.998;7.614;2023-07-22T10:52:38;10.32;;;7.47;;
23670;SDS011;12012;51.998;7.614;2023-07-22T10:55:14;9.82;;;6.63;;
23670;SDS011;12012;51.998;7.614;2023-07-22T10:57:47;11.77;;;6.88;;
23670;SDS011;12012;51.998;7.614;2023-07-22T11:00:21;8.38;;;6.30;;
23670;SDS011;12012;51.998;7.614;2023-07-22T11:03:12;7.43;;;6.03;;
23670;SDS011;12012;51.998;7.614;2023-07-22T11:05:50;7.38;;;5.53;;
23670;SDS011;12012;51.998;7.614;2023-07-22T11:08:34;9.73;;;7.13;;
23670;SDS011;12012;51.998;7.614;2023-07-22T11:11:01;6.28;;;5.32;;
23670;SDS011;12012;51.998;7.614;2023-07-22T11:13:27;6.95;;;5.70;;
23670;SDS011;12012;51.998;7.614;2023-07-22T11:15:57;8.13;;;6.03;;
23670;SDS011;12012;51.998;7.614;2023-07-22T11:18:36;7.43;;;5.60;;
23670;SDS011;12012;51.998;7.614;2023-07-22T11:21:13;7.28;;;5.25;;
23670;SDS011;12012;51.998;7.614;2023-07-22T11:23:39;7.57;;;5.38;;
23670;SDS011;12012;51.998;7.614;2023-07-22T11:26:04;6.47;;;5.13;;
23670;SDS011;12012;51.998;7.614;2023-07-22T11:28:30;6.90;;;5.32;;
23670;SDS011;12012;51.998;7.614;2023-07-22T11:30:56;6.72;;;5.35;;
23670;SDS011;12012;51.998;7.614;2023-07-22T11:33:23;7.10;;;6.25;;
23670;SDS011;12012;51.998;7.614;2023-07-22T11:35:49;7.38;;;5.25;;
23670;SDS011;12012;51.998;7.614;2023-07-22T11:38:15;5.78;;;5.20;;
23670;SDS011;12012;51.998;7.614;2023-07-22T11:40:41;7.82;;;5.40;;
23670;SDS011;12012;51.998;7.614;2023-07-22T11:43:07;6.32;;;5.05;;
23670;SDS011;12012;51.998;7.614;2023-07-22T11:45:32;7.95;;;5.03;;
23670;SDS011;12012;51.998;7.614;2023-07-22T11:47:58;7.72;;;5.50;;
23670;SDS011;12012;51.998;7.614;2023-07-22T11:50:34;6.53;;;5.07;;
23670;SDS011;12012;51.998;7.614;2023-07-22T11:53:00;7.78;;;5.32;;
23670;SDS011;12012;51.998;7.614;2023-07-22T11:55:26;7.93;;;5.20;;
23670;SDS011;12012;51.998;7.614;2023-07-22T11:57:57;5.32;;;4.70;;
23670;SDS011;12012;51.998;7.614;2023-07-22T12:00:23;7.40;;;4.90;;
23670;SDS011;12012;51.998;7.614;2023-07-22T12:02:48;5.45;;;4.10;;
23670;SDS011;12012;51.998;7.614;2023-07-22T12:05:20;6.05;;;4.32;;
23670;SDS011;12012;51.998;7.614;2023-07-22T12:07:46;6.82;;;4.72;;
23670;SDS011;12012;51.998;7.614;2023-07-22T12:10:12;9.02;;;4.70;;
23670;SDS011;12012;51.998;7.614;2023-07-22T12:12:45;7.72;;;4.57;;
23670;SDS011;12012;51.998;7.614;2023-07-22T12:15:15;5.65;;;4.82;;
23670;SDS011;12012;51.998;7.614;2023-07-22T12:20:23;7.43;;;5.20;;
23670;SDS011;12012;51.998;7.614;2023-07-22T12:22:51;7.13;;;5.22;;
23670;SDS011;12012;51.998;7.614;2023-07-22T12:25:16;6.90;;;5.78;;
23670;SDS011;12012;51.998;7.614;2023-07-22T12:27:43;5.47;;;4.53;;
23670;SDS011;12012;51.998;7.614;2023-07-22T12:30:09;6.40;;;4.35;;
23670;SDS011;12012;51.998;7.614;2023-07-22T12:32:34;7.28;;;5.30;;
23670;SDS011;12012;51.998;7.614;2023-07-22T12:35:00;5.35;;;4.60;;
23670;SDS011;12012;51.998;7.614;2023-07-22T12:37:28;6.35;;;4.13;;
23670;SDS011;12012;51.998;7.614;2023-07-22T12:39:53;6.90;;;4.32;;
23670;SDS011;12012;51.998;7.614;2023-07-22T12:42:19;5.85;;;4.10;;
23670;SDS011;12012;51.998;7.614;2023-07-22T12:44:44;4.85;;;4.07;;
23670;SDS011;12012;51.998;7.614;2023-07-22T12:47:11;6.68;;;4.32;;
23670;SDS011;12012;51.998;7.614;2023-07-22T12:49:36;5.70;;;4.05;;
23670;SDS011;12012;51.998;7.614;2023-07-22T12:52:02;6.55;;;4.40;;
23670;SDS011;12012;51.998;7.614;2023-07-22T12:54:30;5.60;;;4.30;;
23670;SDS011;12012;51.998;7.614;2023-07-22T12:56:56;4.82;;;3.83;;
23670;SDS011;12012;51.998;7.614;2023-07-22T12:59:22;4.65;;;3.95;;
23670;SDS011;12012;51.998;7.614;2023-07-22T13:01:47;4.20;;;3.80;;
23670;SDS011;12012;51.998;7.614;2023-07-22T13:04:13;4.85;;;3.90;;
23670;SDS011;12012;51.998;7.614;2023-07-22T13:06:39;7.40;;;4.25;;
23670;SDS011;12012;51.998;7.614;2023-07-22T13:09:04;8.57;;;4.30;;
23670;SDS011;12012;51.998;7.614;2023-07-22T13:11:30;7.70;;;4.32;;
23670;SDS011;12012;51.998;7.614;2023-07-22T13:13:55;5.22;;;3.78;;
23670;SDS011;12012;51.998;7.614;2023-07-22T13:16:21;4.18;;;3.70;;
23670;SDS011;12012;51.998;7.614;2023-07-22T13:18:46;5.30;;;3.75;;
23670;SDS011;12012;51.998;7.614;2023-07-22T13:21:12;7.30;;;4.30;;
23670;SDS011;12012;51.998;7.614;2023-07-22T13:23:37;4.70;;;3.45;;
23670;SDS011;12012;51.998;7.614;2023-07-22T13:26:03;4.82;;;3.75;;
23670;SDS011;12012;51.998;7.614;2023-07-22T13:28:28;7.47;;;4.15;;
23670;SDS011;12012;51.998;7.614;2023-07-22T13:30:54;4.43;;;3.47;;
23670;SDS011;12012;51.998;7.614;2023-07-22T13:33:20;8.85;;;3.42;;
23670;SDS011;12012;51.998;7.614;2023-07-22T13:35:45;6.60;;;3.80;;
23670;SDS011;12012;51.998;7.614;2023-07-22T13:38:11;4.90;;;3.30;;
23670;SDS011;12012;51.998;7.614;2023-07-22T13:40:36;3.85;;;3.22;;
23670;SDS011;12012;51.998;7.614;2023-07-22T13:43:02;4.32;;;3.63;;
23670;SDS011;12012;51.998;7.614;2023-07-22T13:45:27;4.55;;;3.53;;
23670;SDS011;12012;51.998;7.614;2023-07-22T13:47:53;5.45;;;3.10;;
23670;SDS011;12012;51.998;7.614;2023-07-22T13:50:19;4.35;;;3.50;;
23670;SDS011;12012;51.998;7.614;2023-07-22T13:52:44;3.80;;;3.45;;
23670;SDS011;12012;51.998;7.614;2023-07-22T13:55:10;5.28;;;3.42;;
23670;SDS011;12012;51.998;7.614;2023-07-22T13:57:35;7.05;;;2.92;;
23670;SDS011;12012;51.998;7.614;2023-07-22T14:00:01;8.00;;;3.00;;
23670;SDS011;12012;51.998;7.614;2023-07-22T14:02:33;4.97;;;2.90;;
23670;SDS011;12012;51.998;7.614;2023-07-22T14:05:01;3.70;;;3.20;;
23670;SDS011;12012;51.998;7.614;2023-07-22T14:07:27;3.83;;;3.05;;
23670;SDS011;12012;51.998;7.614;2023-07-22T14:09:52;3.97;;;2.53;;
23670;SDS011;12012;51.998;7.614;2023-07-22T14:12:18;4.32;;;2.72;;
23670;SDS011;12012;51.998;7.614;2023-07-22T14:14:43;5.82;;;2.58;;
23670;SDS011;12012;51.998;7.614;2023-07-22T14:17:09;4.40;;;2.97;;
23670;SDS011;12012;51.998;7.614;2023-07-22T14:19:34;4.28;;;3.00;;
23670;SDS011;12012;51.998;7.614;2023-07-22T14:22:00;4.80;;;2.65;;
23670;SDS011;12012;51.998;7.614;2023-07-22T14:24:26;4.95;;;2.80;;
23670;SDS011;12012;51.998;7.614;2023-07-22T14:26:51;4.28;;;2.60;;
23670;SDS011;12012;51.998;7.614;2023-07-22T14:29:17;2.80;;;2.53;;
23670;SDS011;12012;51.998;7.614;2023-07-22T14:31:42;3.83;;;2.60;;
23670;SDS011;12012;51.998;7.614;2023-07-22T14:34:17;2.55;;;2.22;;
23670;SDS011;12012;51.998;7.614;2023-07-22T14:36:42;2.35;;;2.15;;
23670;SDS011;12012;51.998;7.614;2023-07-22T14:39:08;2.42;;;1.98;;